Time;durP1;ratioP1;P1;durP2;ratioP2;P2;SDS_P1;SDS_P2;PMS_P1;PMS_P2;Temp;Humidity;BMP_temperature;BMP_pressure;BME280_temperature;BME280_humidity;BME280_pressure;Samples;Min_cycle;Max_cycle;Signal;HPM_P1;HPM_P2
2021/05/24 00:01:20;;;;;;;;;;;;;;;;;;5013132;28;19926;-70
2021/05/24 00:03:47;;;;;;;;;;;;;;;;;;5023188;28;20024;-68
2021/05/24 00:06:13;;;;;;;;;;;;;;;;;;5014197;28;20007;-69
2021/05/24 00:08:40;;;;;;;;;;;;;;;;;;5015925;28;19926;-68
2021/05/24 00:11:07;;;;;;;;;;;;;;;;;;5019129;28;19929;-69
2021/05/24 00:13:43;;;;;;;;;;;;;;;;;;5015628;28;19938;-70
2021/05/24 00:16:09;;;;;;;;;;;;;;;;;;5024188;28;19925;-69
2021/05/24 00:18:36;;;;;;;;;;;;;;;;;;5011418;28;19932;-70
2021/05/24 00:21:02;;;;;;;;;;;;;;;;;;5012038;28;20325;-69
2021/05/24 00:23:29;;;;;;;;;;;;;;;;;;5018908;28;19925;-69
2021/05/24 00:25:55;;;;;;;;;;;;;;;;;;5016959;28;20370;-69
2021/05/24 00:28:22;;;;;;;;;;;;;;;;;;5012014;28;19933;-69
2021/05/24 00:30:49;;;;;;;;;;;;;;;;;;5019665;28;20009;-69
2021/05/24 00:33:17;;;;;;;;;;;;;;;;;;5011836;28;19925;-69
2021/05/24 00:35:43;;;;;;;;;;;;;;;;;;5023171;28;19933;-69
2021/05/24 00:38:10;;;;;;;;;;;;;;;;;;5020487;28;19925;-70
2021/05/24 00:40:36;;;;;;;;;;;;;;;;;;5019552;28;19925;-69
2021/05/24 00:43:03;;;;;;;;;;;;;;;;;;5018777;28;19929;-69
2021/05/24 00:45:29;;;;;;;;;;;;;;;;;;5027593;28;19924;-69
2021/05/24 00:47:56;;;;;;;;;;;;;;;;;;5013383;28;20367;-68
2021/05/24 00:50:22;;;;;;;;;;;;;;;;;;5019079;28;19941;-69
2021/05/24 00:52:49;;;;;;;;;;;;;;;;;;5015193;28;19953;-69
2021/05/24 00:55:15;;;;;;;;;;;;;;;;;;5019351;28;19925;-70
2021/05/24 00:57:43;;;;;;;;;;;;;;;;;;5014352;28;19948;-70
2021/05/24 01:00:10;;;;;;;;;;;;;;;;;;5012753;28;19975;-70
2021/05/24 01:02:36;;;;;;;;;;;;;;;;;;5022240;28;19960;-68
2021/05/24 01:05:03;;;;;;;;;;;;;;;;;;5024109;28;19935;-69
2021/05/24 01:07:29;;;;;;;;;;;;;;;;;;5029532;28;19963;-68
2021/05/24 01:09:56;;;;;;;;;;;;;;;;;;5011893;28;19932;-71
2021/05/24 01:12:22;;;;;;;;;;;;;;;;;;5022795;28;19933;-69
2021/05/24 01:14:49;;;;;;;;;;;;;;;;;;5015542;28;19929;-69
2021/05/24 01:17:15;;;;;;;;;;;;;;;;;;5029666;28;20313;-69
2021/05/24 01:19:41;;;;;;;;;;;;;;;;;;5014564;28;19925;-70
2021/05/24 01:22:14;;;;;;;;;;;;;;;;;;5015555;28;19929;-69
2021/05/24 01:24:41;;;;;;;;;;;;;;;;;;5020379;28;19968;-69
2021/05/24 01:27:07;;;;;;;;;;;;;;;;;;5016367;28;19929;-69
2021/05/24 01:29:33;;;;;;;;;;;;;;;;;;5022868;28;19930;-70
2021/05/24 01:32:00;;;;;;;;;;;;;;;;;;5021875;28;20292;-69
2021/05/24 01:34:26;;;;;;;;;;;;;;;;;;5016227;28;19971;-70
2021/05/24 01:36:53;;;;;;;;;;;;;;;;;;5018131;28;19933;-69
2021/05/24 01:39:20;;;;;;;;;;;;;;;;;;5021304;28;19929;-69
2021/05/24 01:41:46;;;;;;;;;;;;;;;;;;5019716;28;19925;-69
2021/05/24 01:44:13;;;;;;;;;;;;;;;;;;5021769;28;20012;-70
2021/05/24 01:46:39;;;;;;;;;;;;;;;;;;5019742;28;20057;-69
2021/05/24 01:49:05;;;;;;;;;;;;;;;;;;5018952;28;19979;-69
2021/05/24 01:51:32;;;;;;;;;;;;;;;;;;5024849;28;19929;-69
2021/05/24 01:53:58;;;;;;;;;;;;;;;;;;5021656;28;19926;-69
2021/05/24 01:56:25;;;;;;;;;;;;;;;;;;5014226;28;19926;-69
2021/05/24 01:58:51;;;;;;;;;;;;;;;;;;5014523;28;20385;-69
2021/05/24 02:01:17;;;;;;;;;;;;;;;;;;5027335;28;19932;-68
2021/05/24 02:03:46;;;;;;;;;;;;;;;;;;5015568;28;19925;-69
2021/05/24 02:06:12;;;;;;;;;;;;;;;;;;5021465;28;19926;-68
2021/05/24 02:08:39;;;;;;;;;;;;;;;;;;5022796;28;20412;-69
2021/05/24 02:11:05;;;;;;;;;;;;;;;;;;5022050;28;19989;-69
2021/05/24 02:13:32;;;;;;;;;;;;;;;;;;5022754;28;19925;-69
2021/05/24 02:15:58;;;;;;;;;;;;;;;;;;5023373;28;19925;-70
2021/05/24 02:18:25;;;;;;;;;;;;;;;;;;5026481;28;19963;-69
2021/05/24 02:20:51;;;;;;;;;;;;;;;;;;5029440;28;20015;-69
2021/05/24 02:23:18;;;;;;;;;;;;;;;;;;5019754;28;19929;-69
2021/05/24 02:25:44;;;;;;;;;;;;;;;;;;5024720;28;20399;-70
2021/05/24 02:28:11;;;;;;;;;;;;;;;;;;5015624;28;19925;-69
2021/05/24 02:30:37;;;;;;;;;;;;;;;;;;5028418;28;19978;-69
2021/05/24 02:33:04;;;;;;;;;;;;;;;;;;5018714;28;19951;-69
2021/05/24 02:35:30;;;;;;;;;;;;;;;;;;5030590;28;19925;-69
2021/05/24 02:37:57;;;;;;;;;;;;;;;;;;5023056;28;19926;-69
2021/05/24 02:40:23;;;;;;;;;;;;;;;;;;5021734;28;19994;-70
2021/05/24 02:42:50;;;;;;;;;;;;;;;;;;5020206;28;19926;-68
2021/05/24 02:45:16;;;;;;;;;;;;;;;;;;5019740;28;19929;-69
2021/05/24 02:47:43;;;;;;;;;;;;;;;;;;5014354;28;20374;-70
2021/05/24 02:50:09;;;;;;;;;;;;;;;;;;5021500;28;19929;-69
2021/05/24 02:52:36;;;;;;;;;;;;;;;;;;5023452;28;20355;-69
2021/05/24 02:55:02;;;;;;;;;;;;;;;;;;5018594;28;19925;-69
2021/05/24 02:57:28;;;;;;;;;;;;;;;;;;5014343;28;19925;-69
2021/05/24 02:59:55;;;;;;;;;;;;;;;;;;5016275;28;19926;-69
2021/05/24 03:02:26;;;;;;;;;;;;;;;;;;5026220;28;20033;-69
2021/05/24 03:04:52;;;;;;;;;;;;;;;;;;5025089;28;19925;-70
2021/05/24 03:07:19;;;;;;;;;;;;;;;;;;5023344;28;20022;-70
2021/05/24 03:09:45;;;;;;;;;;;;;;;;;;5015067;28;19929;-69
2021/05/24 03:12:12;;;;;;;;;;;;;;;;;;5029008;28;20380;-68
2021/05/24 03:14:38;;;;;;;;;;;;;;;;;;5014926;28;19926;-69
2021/05/24 03:17:05;;;;;;;;;;;;;;;;;;5025695;28;19925;-68
2021/05/24 03:19:31;;;;;;;;;;;;;;;;;;5014575;28;20282;-69
2021/05/24 03:21:58;;;;;;;;;;;;;;;;;;5015052;28;19969;-68
2021/05/24 03:24:24;;;;;;;;;;;;;;;;;;5013319;28;19925;-69
2021/05/24 03:26:50;;;;;;;;;;;;;;;;;;5014982;28;19933;-68
2021/05/24 03:29:17;;;;;;;;;;;;;;;;;;5016848;28;20455;-70
2021/05/24 03:31:43;;;;;;;;;;;;;;;;;;5020565;28;19971;-69
2021/05/24 03:34:10;;;;;;;;;;;;;;;;;;5049488;22;19965;-70
2021/05/24 03:36:36;;;;;;;;;;;;;;;;;;5049230;28;19968;-70
2021/05/24 03:39:03;;;;;;;;;;;;;;;;;;5051614;28;19978;-69
2021/05/24 03:41:29;;;;;;;;;;;;;;;;;;5049784;28;19925;-69
2021/05/24 03:43:56;;;;;;;;;;;;;;;;;;5046718;28;20027;-70
2021/05/24 03:46:22;;;;;;;;;;;;;;;;;;5028779;28;20204;-70
2021/05/24 03:48:49;;;;;;;;;;;;;;;;;;5035806;28;19925;-70
2021/05/24 03:51:15;;;;;;;;;;;;;;;;;;5036854;28;19929;-71
2021/05/24 03:53:42;;;;;;;;;;;;;;;;;;5035346;28;20409;-70
2021/05/24 03:56:08;;;;;;;;;;;;;;;;;;5031933;28;20024;-70
2021/05/24 03:58:35;;;;;;;;;;;;;;;;;;5037475;28;19935;-69
2021/05/24 04:01:01;;;;;;;;;;;;;;;;;;5038461;28;19925;-70
2021/05/24 04:03:28;;;;;;;;;;;;;;;;;;5039382;28;19932;-69
2021/05/24 04:05:59;;;;;;;;;;;;;;;;;;5036453;28;19925;-69
2021/05/24 04:08:32;;;;;;;;;;;;;;;;;;5030533;28;20437;-69
2021/05/24 04:10:59;;;;;;;;;;;;;;;;;;5030091;28;19972;-69
2021/05/24 04:13:26;;;;;;;;;;;;;;;;;;5030788;28;20028;-70
2021/05/24 04:15:55;;;;;;;;;;;;;;;;;;5030904;28;19925;-70
2021/05/24 04:18:21;;;;;;;;;;;;;;;;;;5030842;28;19941;-70
2021/05/24 04:20:48;;;;;;;;;;;;;;;;;;5029923;28;19948;-70
2021/05/24 04:23:14;;;;;;;;;;;;;;;;;;5031768;28;19925;-71
2021/05/24 04:25:41;;;;;;;;;;;;;;;;;;5028749;28;19929;-70
2021/05/24 04:28:07;;;;;;;;;;;;;;;;;;5030332;28;20087;-70
2021/05/24 04:30:34;;;;;;;;;;;;;;;;;;5030467;28;19929;-69
2021/05/24 04:33:00;;;;;;;;;;;;;;;;;;5029659;28;19925;-70
2021/05/24 04:35:27;;;;;;;;;;;;;;;;;;5030044;28;20431;-68
2021/05/24 04:37:53;;;;;;;;;;;;;;;;;;5030271;28;19929;-71
2021/05/24 04:40:20;;;;;;;;;;;;;;;;;;5029954;28;20120;-71
2021/05/24 04:42:47;;;;;;;;;;;;;;;;;;5027603;28;20128;-71
2021/05/24 04:45:14;;;;;;;;;;;;;;;;;;5029980;28;20028;-71
2021/05/24 04:47:40;;;;;;;;;;;;;;;;;;5030252;28;20301;-71
2021/05/24 04:50:07;;;;;;;;;;;;;;;;;;5029499;28;19936;-70
2021/05/24 04:52:33;;;;;;;;;;;;;;;;;;5029046;28;20313;-68
2021/05/24 04:55:00;;;;;;;;;;;;;;;;;;5029725;28;19925;-71
2021/05/24 04:57:26;;;;;;;;;;;;;;;;;;5031674;28;19925;-70
2021/05/24 04:59:53;;;;;;;;;;;;;;;;;;5033416;28;20343;-70
2021/05/24 05:02:19;;;;;;;;;;;;;;;;;;5026966;28;19925;-70
2021/05/24 05:04:46;;;;;;;;;;;;;;;;;;5039458;28;19925;-69
2021/05/24 05:07:12;;;;;;;;;;;;;;;;;;5034197;28;19925;-70
2021/05/24 05:09:39;;;;;;;;;;;;;;;;;;5042257;28;19925;-71
2021/05/24 05:12:05;;;;;;;;;;;;;;;;;;5043871;28;19929;-69
2021/05/24 05:14:32;;;;;;;;;;;;;;;;;;5033022;28;20389;-69
2021/05/24 05:16:58;;;;;;;;;;;;;;;;;;5035024;28;19925;-70
2021/05/24 05:19:25;;;;;;;;;;;;;;;;;;5033561;28;20317;-70
2021/05/24 05:21:51;;;;;;;;;;;;;;;;;;5035066;28;19935;-71
2021/05/24 05:24:18;;;;;;;;;;;;;;;;;;5033279;28;20025;-70
2021/05/24 05:26:44;;;;;;;;;;;;;;;;;;5033418;28;19925;-70
2021/05/24 05:29:11;;;;;;;;;;;;;;;;;;5033854;28;19932;-71
2021/05/24 05:31:37;;;;;;;;;;;;;;;;;;5031831;28;19937;-70
2021/05/24 05:34:03;;;;;;;;;;;;;;;;;;5032831;28;19925;-69
2021/05/24 05:36:30;;;;;;;;;;;;;;;;;;5032339;28;19925;-68
2021/05/24 05:38:59;;;;;;;;;;;;;;;;;;5033249;28;19967;-69
2021/05/24 05:41:25;;;;;;;;;;;;;;;;;;5030127;28;20090;-70
2021/05/24 05:43:52;;;;;;;;;;;;;;;;;;5031203;28;19925;-70
2021/05/24 05:46:18;;;;;;;;;;;;;;;;;;5033466;28;19925;-70
2021/05/24 05:48:45;;;;;;;;;;;;;;;;;;5027388;28;20023;-69
2021/05/24 05:51:11;;;;;;;;;;;;;;;;;;5032672;28;19928;-70
2021/05/24 05:53:38;;;;;;;;;;;;;;;;;;5032704;28;19925;-67
2021/05/24 05:56:04;;;;;;;;;;;;;;;;;;5034445;28;19931;-70
2021/05/24 05:58:31;;;;;;;;;;;;;;;;;;5032667;28;19925;-70
2021/05/24 06:01:01;;;;;;;;;;;;;;;;;;5032223;28;20019;-69
2021/05/24 06:03:28;;;;;;;;;;;;;;;;;;5031910;28;19932;-70
2021/05/24 06:05:54;;;;;;;;;;;;;;;;;;5034645;28;19932;-69
2021/05/24 06:08:21;;;;;;;;;;;;;;;;;;5033234;28;20381;-70
2021/05/24 06:10:47;;;;;;;;;;;;;;;;;;5032003;28;19925;-68
2021/05/24 06:13:14;;;;;;;;;;;;;;;;;;5032376;28;19929;-70
2021/05/24 06:15:40;;;;;;;;;;;;;;;;;;5032613;28;20012;-69
2021/05/24 06:18:07;;;;;;;;;;;;;;;;;;5031768;28;20460;-67
2021/05/24 06:20:33;;;;;;;;;;;;;;;;;;5030186;28;20003;-69
2021/05/24 06:23:00;;;;;;;;;;;;;;;;;;5030913;28;20431;-70
2021/05/24 06:25:26;;;;;;;;;;;;;;;;;;5031649;28;19983;-69
2021/05/24 06:27:52;;;;;;;;;;;;;;;;;;5031716;28;19975;-69
2021/05/24 06:30:19;;;;;;;;;;;;;;;;;;5031168;28;19925;-70
2021/05/24 06:32:45;;;;;;;;;;;;;;;;;;5031981;28;19925;-69
2021/05/24 06:35:12;;;;;;;;;;;;;;;;;;5031462;28;19933;-69
2021/05/24 06:37:38;;;;;;;;;;;;;;;;;;5031478;28;19932;-69
2021/05/24 06:40:05;;;;;;;;;;;;;;;;;;5031359;28;19951;-69
2021/05/24 06:42:31;;;;;;;;;;;;;;;;;;5023073;28;19925;-68
2021/05/24 06:44:58;;;;;;;;;;;;;;;;;;5031731;28;19932;-69
2021/05/24 06:47:26;;;;;;;;;;;;;;;;;;5031645;28;19924;-69
2021/05/24 06:49:52;;;;;;;;;;;;;;;;;;5030469;28;19973;-69
2021/05/24 06:52:19;;;;;;;;;;;;;;;;;;5031400;28;19925;-68
2021/05/24 06:54:45;;;;;;;;;;;;;;;;;;5031270;28;20024;-68
2021/05/24 06:57:12;;;;;;;;;;;;;;;;;;5031234;28;19978;-68
2021/05/24 06:59:39;;;;;;;;;;;;;;;;;;5031587;28;20393;-69
2021/05/24 07:02:05;;;;;;;;;;;;;;;;;;5029137;28;19925;-72
2021/05/24 07:04:31;;;;;;;;;;;;;;;;;;5035060;28;20079;-69
2021/05/24 07:06:58;;;;;;;;;;;;;;;;;;5031777;28;20019;-69
2021/05/24 07:09:24;;;;;;;;;;;;;;;;;;5030660;28;19929;-67
2021/05/24 07:11:53;;;;;;;;;;;;;;;;;;5029377;28;20025;-69
2021/05/24 07:14:20;;;;;;;;;;;;;;;;;;5030578;28;20301;-70
2021/05/24 07:16:46;;;;;;;;;;;;;;;;;;5030600;28;19931;-69
2021/05/24 07:19:13;;;;;;;;;;;;;;;;;;5030196;28;19925;-70
2021/05/24 07:21:41;;;;;;;;;;;;;;;;;;5027920;28;20435;-68
2021/05/24 07:24:08;;;;;;;;;;;;;;;;;;5030910;28;19925;-72
2021/05/24 07:26:35;;;;;;;;;;;;;;;;;;5030994;28;20444;-68
2021/05/24 07:29:01;;;;;;;;;;;;;;;;;;5031194;28;20331;-69
2021/05/24 07:31:28;;;;;;;;;;;;;;;;;;5027962;28;19936;-70
2021/05/24 07:33:54;;;;;;;;;;;;;;;;;;5030886;28;19940;-68
2021/05/24 07:36:21;;;;;;;;;;;;;;;;;;5030906;28;19931;-69
2021/05/24 07:38:47;;;;;;;;;;;;;;;;;;5030817;28;20308;-68
2021/05/24 07:41:16;;;;;;;;;;;;;;;;;;5029666;28;19932;-69
2021/05/24 07:43:43;;;;;;;;;;;;;;;;;;5028586;28;19925;-70
2021/05/24 07:46:09;;;;;;;;;;;;;;;;;;5031084;28;19925;-69
2021/05/24 07:48:36;;;;;;;;;;;;;;;;;;5030129;28;19929;-69
2021/05/24 07:51:03;;;;;;;;;;;;;;;;;;5027754;28;20320;-69
2021/05/24 07:53:30;;;;;;;;;;;;;;;;;;5029683;28;19925;-69
2021/05/24 07:55:56;;;;;;;;;;;;;;;;;;5030590;28;20316;-67
2021/05/24 07:58:24;;;;;;;;;;;;;;;;;;5029521;28;19943;-69
2021/05/24 08:00:50;;;;;;;;;;;;;;;;;;5024117;28;19928;-69
2021/05/24 08:03:17;;;;;;;;;;;;;;;;;;5030941;28;19929;-68
2021/05/24 08:05:43;;;;;;;;;;;;;;;;;;5037616;28;20318;-68
2021/05/24 08:08:10;;;;;;;;;;;;;;;;;;5046356;28;19926;-68
2021/05/24 08:10:36;;;;;;;;;;;;;;;;;;5034953;28;19929;-67
2021/05/24 08:13:03;;;;;;;;;;;;;;;;;;5032861;28;20047;-69
2021/05/24 08:15:30;;;;;;;;;;;;;;;;;;5030277;28;20232;-69
2021/05/24 08:17:57;;;;;;;;;;;;;;;;;;5030449;28;20290;-69
2021/05/24 08:20:23;;;;;;;;;;;;;;;;;;5030758;28;19925;-68
2021/05/24 08:22:50;;;;;;;;;;;;;;;;;;5028562;28;19925;-68
2021/05/24 08:25:16;;;;;;;;;;;;;;;;;;5027953;28;19944;-68
2021/05/24 08:27:43;;;;;;;;;;;;;;;;;;5029748;28;19925;-67
2021/05/24 08:30:09;;;;;;;;;;;;;;;;;;5030620;28;19932;-67
2021/05/24 08:32:36;;;;;;;;;;;;;;;;;;5033023;28;20348;-67
2021/05/24 08:35:02;;;;;;;;;;;;;;;;;;5034708;28;19926;-67
2021/05/24 08:37:29;;;;;;;;;;;;;;;;;;5035511;28;19925;-67
2021/05/24 08:39:55;;;;;;;;;;;;;;;;;;5035090;28;19932;-67
2021/05/24 08:42:24;;;;;;;;;;;;;;;;;;5032656;28;19926;-67
2021/05/24 08:44:51;;;;;;;;;;;;;;;;;;5034511;28;20027;-67
2021/05/24 08:47:18;;;;;;;;;;;;;;;;;;5035371;28;19968;-67
2021/05/24 08:49:45;;;;;;;;;;;;;;;;;;5033703;28;19925;-68
2021/05/24 08:52:12;;;;;;;;;;;;;;;;;;5036158;28;20036;-68
2021/05/24 08:54:38;;;;;;;;;;;;;;;;;;5035512;28;20015;-69
2021/05/24 08:57:05;;;;;;;;;;;;;;;;;;5041024;28;19979;-69
2021/05/24 08:59:31;;;;;;;;;;;;;;;;;;5035872;28;20320;-68
2021/05/24 09:01:58;;;;;;;;;;;;;;;;;;5035878;28;20023;-68
2021/05/24 09:04:24;;;;;;;;;;;;;;;;;;5045314;28;19960;-68
2021/05/24 09:06:52;;;;;;;;;;;;;;;;;;5044495;28;20016;-68
2021/05/24 09:09:19;;;;;;;;;;;;;;;;;;5043795;28;19933;-68
2021/05/24 09:11:46;;;;;;;;;;;;;;;;;;5038231;28;20019;-68
2021/05/24 09:14:12;;;;;;;;;;;;;;;;;;5033529;28;19933;-68
2021/05/24 09:16:39;;;;;;;;;;;;;;;;;;5034619;28;20064;-68
2021/05/24 09:19:05;;;;;;;;;;;;;;;;;;5034246;28;20349;-69
2021/05/24 09:21:32;;;;;;;;;;;;;;;;;;5032916;28;19979;-68
2021/05/24 09:23:58;;;;;;;;;;;;;;;;;;5034723;28;19925;-68
2021/05/24 09:26:25;;;;;;;;;;;;;;;;;;5034260;28;20398;-69
2021/05/24 09:28:52;;;;;;;;;;;;;;;;;;5033644;28;19925;-68
2021/05/24 09:31:20;;;;;;;;;;;;;;;;;;5033485;28;20292;-68
2021/05/24 09:33:46;;;;;;;;;;;;;;;;;;5031366;28;20012;-69
2021/05/24 09:36:13;;;;;;;;;;;;;;;;;;5034572;28;19948;-69
2021/05/24 09:38:39;;;;;;;;;;;;;;;;;;5031149;28;19925;-70
2021/05/24 09:41:06;;;;;;;;;;;;;;;;;;5030470;28;19967;-68
2021/05/24 09:43:32;;;;;;;;;;;;;;;;;;5030492;28;19925;-68
2021/05/24 09:45:59;;;;;;;;;;;;;;;;;;5031455;28;19925;-68
2021/05/24 09:48:25;;;;;;;;;;;;;;;;;;5033969;28;19925;-68
2021/05/24 09:50:52;;;;;;;;;;;;;;;;;;5032800;28;19929;-70
2021/05/24 09:53:18;;;;;;;;;;;;;;;;;;5033710;28;19925;-70
2021/05/24 09:55:45;;;;;;;;;;;;;;;;;;5031931;28;20176;-69
2021/05/24 09:58:12;;;;;;;;;;;;;;;;;;5032907;28;19975;-69
2021/05/24 10:00:41;;;;;;;;;;;;;;;;;;5027491;28;19926;-70
2021/05/24 10:03:09;;;;;;;;;;;;;;;;;;5027787;28;19979;-68
2021/05/24 10:05:35;;;;;;;;;;;;;;;;;;5031829;28;19925;-71
2021/05/24 10:08:02;;;;;;;;;;;;;;;;;;5031687;28;20270;-67
2021/05/24 10:10:28;;;;;;;;;;;;;;;;;;5033107;28;19925;-69
2021/05/24 10:12:55;;;;;;;;;;;;;;;;;;5026490;28;19929;-68
2021/05/24 10:15:22;;;;;;;;;;;;;;;;;;5031428;28;19970;-67
2021/05/24 10:17:57;;;;;;;;;;;;;;;;;;5031143;28;19931;-68
2021/05/24 10:20:24;;;;;;;;;;;;;;;;;;5030588;28;19965;-69
2021/05/24 10:22:50;;;;;;;;;;;;;;;;;;5031123;28;19931;-69
2021/05/24 10:25:17;;;;;;;;;;;;;;;;;;5031654;28;19929;-68
2021/05/24 10:27:43;;;;;;;;;;;;;;;;;;5032121;28;19931;-69
2021/05/24 10:30:10;;;;;;;;;;;;;;;;;;5026649;28;19934;-69
2021/05/24 10:32:37;;;;;;;;;;;;;;;;;;5027940;28;19928;-70
2021/05/24 10:35:03;;;;;;;;;;;;;;;;;;5031777;28;19933;-68
2021/05/24 10:37:30;;;;;;;;;;;;;;;;;;5026348;28;20027;-68
2021/05/24 10:40:02;;;;;;;;;;;;;;;;;;5030314;28;20316;-67
2021/05/24 10:42:28;;;;;;;;;;;;;;;;;;5028854;28;19925;-68
2021/05/24 10:44:55;;;;;;;;;;;;;;;;;;5026969;28;20299;-69
2021/05/24 10:47:21;;;;;;;;;;;;;;;;;;5031367;28;20051;-70
2021/05/24 10:49:48;;;;;;;;;;;;;;;;;;5030419;28;19949;-69
2021/05/24 10:52:14;;;;;;;;;;;;;;;;;;5028501;28;20342;-68
2021/05/24 10:54:41;;;;;;;;;;;;;;;;;;5029792;28;19925;-68
2021/05/24 10:57:08;;;;;;;;;;;;;;;;;;5029849;28;19925;-69
2021/05/24 10:59:34;;;;;;;;;;;;;;;;;;5027086;28;20023;-70
2021/05/24 11:02:01;;;;;;;;;;;;;;;;;;5028486;28;21428;-68
2021/05/24 11:04:27;;;;;;;;;;;;;;;;;;5025779;28;20111;-67
2021/05/24 11:06:54;;;;;;;;;;;;;;;;;;5030037;28;19925;-69
2021/05/24 11:09:20;;;;;;;;;;;;;;;;;;5023889;28;20302;-67
2021/05/24 11:11:47;;;;;;;;;;;;;;;;;;5023369;28;19926;-68
2021/05/24 11:14:13;;;;;;;;;;;;;;;;;;5024623;28;20355;-68
2021/05/24 11:16:40;;;;;;;;;;;;;;;;;;5024911;28;20328;-69
2021/05/24 11:19:07;;;;;;;;;;;;;;;;;;5027410;28;19925;-71
2021/05/24 11:21:34;;;;;;;;;;;;;;;;;;5023375;28;19982;-69
2021/05/24 11:24:20;;;;;;;;;;;;;;;;;;5026265;28;19933;-70
2021/05/24 11:26:47;;;;;;;;;;;;;;;;;;5023868;28;20400;-66
2021/05/24 11:29:14;;;;;;;;;;;;;;;;;;5026279;28;19935;-71
2021/05/24 11:31:41;;;;;;;;;;;;;;;;;;5024952;28;19972;-69
2021/05/24 11:34:07;;;;;;;;;;;;;;;;;;5025195;28;19933;-70
2021/05/24 11:36:34;;;;;;;;;;;;;;;;;;5024157;28;20012;-70
2021/05/24 11:39:01;;;;;;;;;;;;;;;;;;5024773;28;20039;-70
2021/05/24 11:41:30;;;;;;;;;;;;;;;;;;5024663;28;20417;-69
2021/05/24 11:43:56;;;;;;;;;;;;;;;;;;5025149;28;20012;-70
2021/05/24 11:46:23;;;;;;;;;;;;;;;;;;5028201;28;20406;-68
2021/05/24 11:48:49;;;;;;;;;;;;;;;;;;5026787;28;20561;-69
2021/05/24 11:51:16;;;;;;;;;;;;;;;;;;5029858;28;20090;-69
2021/05/24 11:53:43;;;;;;;;;;;;;;;;;;5029031;28;19944;-68
2021/05/24 11:56:09;;;;;;;;;;;;;;;;;;5029357;28;19925;-70
2021/05/24 11:58:35;;;;;;;;;;;;;;;;;;5027689;28;19925;-70
2021/05/24 12:01:02;;;;;;;;;;;;;;;;;;5029669;28;19929;-69
2021/05/24 12:03:28;;;;;;;;;;;;;;;;;;5029997;28;19932;-69
2021/05/24 12:05:55;;;;;;;;;;;;;;;;;;5028627;28;19925;-68
2021/05/24 12:08:21;;;;;;;;;;;;;;;;;;5025833;28;19955;-69
2021/05/24 12:10:49;;;;;;;;;;;;;;;;;;5031045;28;19925;-70
2021/05/24 12:13:18;;;;;;;;;;;;;;;;;;5029371;28;20019;-69
2021/05/24 12:15:45;;;;;;;;;;;;;;;;;;5023260;28;19979;-68
2021/05/24 12:18:11;;;;;;;;;;;;;;;;;;5029028;28;20050;-69
2021/05/24 12:20:38;;;;;;;;;;;;;;;;;;5028231;28;19925;-67
2021/05/24 12:23:05;;;;;;;;;;;;;;;;;;5028767;28;20016;-67
2021/05/24 12:25:31;;;;;;;;;;;;;;;;;;5030403;28;20377;-68
2021/05/24 12:27:58;;;;;;;;;;;;;;;;;;5028396;28;19929;-68
2021/05/24 12:30:24;;;;;;;;;;;;;;;;;;5029846;28;19948;-69
2021/05/24 12:32:53;;;;;;;;;;;;;;;;;;5030477;28;19970;-68
2021/05/24 12:35:19;;;;;;;;;;;;;;;;;;5030373;28;20472;-69
2021/05/24 12:37:46;;;;;;;;;;;;;;;;;;5031410;28;20059;-68
2021/05/24 12:40:12;;;;;;;;;;;;;;;;;;5029805;28;20107;-66
2021/05/24 12:42:39;;;;;;;;;;;;;;;;;;5030572;28;19925;-66
2021/05/24 12:45:06;;;;;;;;;;;;;;;;;;5028801;28;20023;-68
2021/05/24 12:47:33;;;;;;;;;;;;;;;;;;5028318;28;19929;-68
2021/05/24 12:49:59;;;;;;;;;;;;;;;;;;5026655;28;19975;-69
2021/05/24 12:52:26;;;;;;;;;;;;;;;;;;5019979;28;20280;-66
2021/05/24 12:54:52;;;;;;;;;;;;;;;;;;5026532;28;19926;-66
2021/05/24 12:57:19;;;;;;;;;;;;;;;;;;5025248;28;19929;-66
2021/05/24 12:59:47;;;;;;;;;;;;;;;;;;5023831;28;19925;-67
2021/05/24 13:02:14;;;;;;;;;;;;;;;;;;5025524;28;19925;-68
2021/05/24 13:04:40;;;;;;;;;;;;;;;;;;5026148;28;20280;-67
2021/05/24 13:07:07;;;;;;;;;;;;;;;;;;5027938;28;20294;-67
2021/05/24 13:09:33;;;;;;;;;;;;;;;;;;5027455;28;19979;-68
2021/05/24 13:12:02;;;;;;;;;;;;;;;;;;5026807;28;19926;-67
2021/05/24 13:14:31;;;;;;;;;;;;;;;;;;5024660;28;19929;-68
2021/05/24 13:16:58;;;;;;;;;;;;;;;;;;5028125;28;20384;-68
2021/05/24 13:19:37;;;;;;;;;;;;;;;;;;5028195;28;19937;-66
2021/05/24 13:27:42;;;;;;;;;;;;;;;;;;5014329;28;19932;-67
2021/05/24 13:30:08;;;;;;;;;;;;;;;;;;5025636;28;19979;-67
2021/05/24 13:32:34;;;;;;;;;;;;;;;;;;5025698;28;20012;-67
2021/05/24 13:35:01;;;;;;;;;;;;;;;;;;5029898;28;19986;-67
2021/05/24 13:37:27;;;;;;;;;;;;;;;;;;5028511;28;19931;-68
2021/05/24 13:39:54;;;;;;;;;;;;;;;;;;5031945;28;20381;-69
2021/05/24 13:42:20;;;;;;;;;;;;;;;;;;5026092;28;20274;-69
2021/05/24 13:44:47;;;;;;;;;;;;;;;;;;5027207;28;20019;-68
2021/05/24 13:47:13;;;;;;;;;;;;;;;;;;5030234;28;19925;-68
2021/05/24 13:49:39;;;;;;;;;;;;;;;;;;5026550;28;20016;-67
2021/05/24 13:52:07;;;;;;;;;;;;;;;;;;5028169;28;20396;-68
2021/05/24 13:54:33;;;;;;;;;;;;;;;;;;5027334;28;19925;-70
2021/05/24 13:57:00;;;;;;;;;;;;;;;;;;5028075;28;19964;-68
2021/05/24 13:59:26;;;;;;;;;;;;;;;;;;5028869;28;19975;-69
2021/05/24 14:01:53;;;;;;;;;;;;;;;;;;5031084;28;20012;-69
2021/05/24 14:04:19;;;;;;;;;;;;;;;;;;5031861;28;19926;-69
2021/05/24 14:06:47;;;;;;;;;;;;;;;;;;5026500;28;21751;-69
2021/05/24 14:09:14;;;;;;;;;;;;;;;;;;5027857;28;19968;-68
2021/05/24 14:11:41;;;;;;;;;;;;;;;;;;5029439;28;19925;-68
2021/05/24 14:14:07;;;;;;;;;;;;;;;;;;5034504;28;19931;-69
2021/05/24 14:16:34;;;;;;;;;;;;;;;;;;5030953;28;20025;-69
2021/05/24 14:19:00;;;;;;;;;;;;;;;;;;5029833;28;20433;-68
2021/05/24 14:21:27;;;;;;;;;;;;;;;;;;5031157;28;19925;-69
2021/05/24 14:23:55;;;;;;;;;;;;;;;;;;5028700;28;19952;-68
2021/05/24 14:26:21;;;;;;;;;;;;;;;;;;5030646;28;20034;-68
2021/05/24 14:28:48;;;;;;;;;;;;;;;;;;5030243;28;20381;-70
2021/05/24 14:31:14;;;;;;;;;;;;;;;;;;5031519;28;20449;-67
2021/05/24 14:33:41;;;;;;;;;;;;;;;;;;5029220;28;20032;-67
2021/05/24 14:36:07;;;;;;;;;;;;;;;;;;5032736;28;19925;-68
2021/05/24 14:38:34;;;;;;;;;;;;;;;;;;5031000;28;19933;-68
2021/05/24 14:41:00;;;;;;;;;;;;;;;;;;5026012;28;20016;-67
2021/05/24 14:43:27;;;;;;;;;;;;;;;;;;5028620;28;19932;-68
2021/05/24 14:45:55;;;;;;;;;;;;;;;;;;5030476;28;19951;-67
2021/05/24 14:48:21;;;;;;;;;;;;;;;;;;5026752;28;19964;-69
2021/05/24 14:50:49;;;;;;;;;;;;;;;;;;5028917;28;20423;-68
2021/05/24 14:53:18;;;;;;;;;;;;;;;;;;5027815;28;20023;-68
2021/05/24 14:55:45;;;;;;;;;;;;;;;;;;5027570;28;20625;-68
2021/05/24 14:58:11;;;;;;;;;;;;;;;;;;5026641;28;19961;-68
2021/05/24 15:00:38;;;;;;;;;;;;;;;;;;5026020;28;19967;-70
2021/05/24 15:03:04;;;;;;;;;;;;;;;;;;5026376;28;19931;-68
2021/05/24 15:05:31;;;;;;;;;;;;;;;;;;5026291;28;19925;-67
2021/05/24 15:07:57;;;;;;;;;;;;;;;;;;5026519;28;19932;-68
2021/05/24 15:10:24;;;;;;;;;;;;;;;;;;5024498;28;19931;-68
2021/05/24 15:12:51;;;;;;;;;;;;;;;;;;5029870;28;19965;-68
2021/05/24 15:15:18;;;;;;;;;;;;;;;;;;5027673;28;19929;-68
2021/05/24 15:17:45;;;;;;;;;;;;;;;;;;5027304;28;20028;-67
2021/05/24 15:20:11;;;;;;;;;;;;;;;;;;5027555;28;19925;-68
2021/05/24 15:22:38;;;;;;;;;;;;;;;;;;5026319;28;20577;-68
2021/05/24 15:25:04;;;;;;;;;;;;;;;;;;5028307;28;19964;-66
2021/05/24 15:27:31;;;;;;;;;;;;;;;;;;5028336;28;19972;-67
2021/05/24 15:29:57;;;;;;;;;;;;;;;;;;5028251;28;19967;-67
2021/05/24 15:32:24;;;;;;;;;;;;;;;;;;5026317;28;20391;-69
2021/05/24 15:34:53;;;;;;;;;;;;;;;;;;5025075;28;19929;-68
2021/05/24 15:37:19;;;;;;;;;;;;;;;;;;5026663;28;19925;-68
2021/05/24 15:39:46;;;;;;;;;;;;;;;;;;5025133;28;20045;-67
2021/05/24 15:42:12;;;;;;;;;;;;;;;;;;5025949;28;20378;-67
2021/05/24 15:44:40;;;;;;;;;;;;;;;;;;5023223;28;19982;-67
2021/05/24 15:47:06;;;;;;;;;;;;;;;;;;5024254;28;20394;-68
2021/05/24 15:49:33;;;;;;;;;;;;;;;;;;5024175;28;19963;-68
2021/05/24 15:52:00;;;;;;;;;;;;;;;;;;5024865;28;19925;-68
2021/05/24 15:54:26;;;;;;;;;;;;;;;;;;5024805;28;19929;-67
2021/05/24 15:56:53;;;;;;;;;;;;;;;;;;5023733;28;19939;-67
2021/05/24 15:59:21;;;;;;;;;;;;;;;;;;5026775;28;20051;-68
2021/05/24 16:01:49;;;;;;;;;;;;;;;;;;5025341;28;20183;-65
2021/05/24 16:04:16;;;;;;;;;;;;;;;;;;5027682;28;19925;-66
2021/05/24 16:06:45;;;;;;;;;;;;;;;;;;5027592;28;19933;-67
2021/05/24 16:09:14;;;;;;;;;;;;;;;;;;5022182;28;19979;-68
2021/05/24 16:11:40;;;;;;;;;;;;;;;;;;5026158;28;19933;-67
2021/05/24 16:14:08;;;;;;;;;;;;;;;;;;5025525;28;20015;-67
2021/05/24 16:16:35;;;;;;;;;;;;;;;;;;5024519;28;19979;-68
2021/05/24 16:19:04;;;;;;;;;;;;;;;;;;5023351;28;20339;-68
2021/05/24 16:21:30;;;;;;;;;;;;;;;;;;5021243;28;20381;-68
2021/05/24 16:24:05;;;;;;;;;;;;;;;;;;5024415;28;20332;-68
2021/05/24 16:26:31;;;;;;;;;;;;;;;;;;5025189;28;19925;-68
2021/05/24 16:28:58;;;;;;;;;;;;;;;;;;5024095;28;19932;-69
2021/05/24 16:31:24;;;;;;;;;;;;;;;;;;5025185;28;20377;-68
2021/05/24 16:33:51;;;;;;;;;;;;;;;;;;5026479;28;20359;-68
2021/05/24 16:36:17;;;;;;;;;;;;;;;;;;5024509;28;20028;-69
2021/05/24 16:38:44;;;;;;;;;;;;;;;;;;5024614;28;20396;-69
2021/05/24 16:41:11;;;;;;;;;;;;;;;;;;5025429;28;19974;-69
2021/05/24 16:43:37;;;;;;;;;;;;;;;;;;5024684;28;19987;-68
2021/05/24 16:46:04;;;;;;;;;;;;;;;;;;5023854;28;19925;-68
2021/05/24 16:48:30;;;;;;;;;;;;;;;;;;5026189;28;19975;-69